Time;durP1;ratioP1;P1;durP2;ratioP2;P2;SDS_P1;SDS_P2;PMS_P1;PMS_P2;Temp;Humidity;BMP_temperature;BMP_pressure;BME280_temperature;BME280_humidity;BME280_pressure;Samples;Min_cycle;Max_cycle;Signal;HPM_P1;HPM_P2
2022/10/27 00:00:38;;;;;;;28.38;15.68;;;10.10;99.90;;;;;;4965383;28;20616;-75
2022/10/27 00:03:06;;;;;;;24.88;16.38;;;10.20;99.90;;;;;;4987942;28;20050;-75
2022/10/27 00:05:33;;;;;;;21.48;16.00;;;10.20;99.90;;;;;;4967319;28;20052;-74
2022/10/27 00:08:00;;;;;;;19.58;14.32;;;10.10;99.90;;;;;;4988089;28;20065;-76
2022/10/27 00:10:27;;;;;;;19.23;13.52;;;10.00;99.90;;;;;;4988255;28;20050;-74
2022/10/27 00:12:53;;;;;;;18.90;14.05;;;10.00;99.90;;;;;;4969576;28;20323;-75
2022/10/27 00:15:21;;;;;;;22.55;15.00;;;9.90;99.90;;;;;;4964532;28;20484;-75
2022/10/27 00:17:47;;;;;;;27.17;16.33;;;10.00;99.90;;;;;;4968638;28;20054;-75
2022/10/27 00:20:14;;;;;;;22.60;15.00;;;10.10;99.90;;;;;;4979244;28;20050;-74
2022/10/27 00:22:41;;;;;;;19.35;13.85;;;10.20;99.90;;;;;;4986395;28;20133;-73
2022/10/27 00:25:08;;;;;;;18.60;12.70;;;10.30;99.90;;;;;;4986404;28;20141;-75
2022/10/27 00:27:34;;;;;;;17.35;12.60;;;10.30;99.90;;;;;;4983754;28;20117;-74
2022/10/27 00:30:01;;;;;;;19.25;12.20;;;10.30;99.90;;;;;;4981937;28;20042;-75
2022/10/27 00:32:28;;;;;;;20.02;13.45;;;10.50;99.90;;;;;;4989912;28;20516;-74
2022/10/27 00:34:54;;;;;;;21.20;12.43;;;10.20;99.90;;;;;;4976420;28;20054;-75
2022/10/27 00:37:21;;;;;;;15.82;10.25;;;10.10;99.90;;;;;;4965398;28;20054;-75
2022/10/27 00:39:48;;;;;;;16.27;10.85;;;9.90;99.90;;;;;;4987179;28;20035;-76
2022/10/27 00:42:14;;;;;;;19.15;11.88;;;9.80;99.90;;;;;;4968939;28;20035;-76
2022/10/27 00:44:44;;;;;;;20.52;11.02;;;9.60;99.90;;;;;;4982172;28;20046;-76
2022/10/27 00:47:26;;;;;;;20.17;11.55;;;9.60;99.90;;;;;;4964791;28;20048;-75
2022/10/27 00:49:59;;;;;;;21.00;12.07;;;9.50;99.90;;;;;;4985842;28;20046;-75
2022/10/27 00:52:32;;;;;;;22.55;12.40;;;9.60;99.90;;;;;;4962427;28;20050;-75
2022/10/27 00:55:08;;;;;;;23.13;13.20;;;9.60;99.90;;;;;;4985575;28;20054;-75
2022/10/27 00:57:37;;;;;;;16.45;12.98;;;9.60;99.90;;;;;;4968479;28;20046;-75
2022/10/27 01:00:05;;;;;;;22.35;12.57;;;9.40;99.90;;;;;;4972206;28;20042;-75
2022/10/27 01:02:33;;;;;;;18.80;12.68;;;9.30;99.90;;;;;;4968920;28;20050;-75
2022/10/27 01:05:09;;;;;;;19.23;13.35;;;9.40;99.90;;;;;;4986176;28;20046;-75
2022/10/27 01:07:37;;;;;;;18.80;13.07;;;9.50;99.90;;;;;;4986067;28;20472;-75
2022/10/27 01:10:05;;;;;;;18.55;12.57;;;9.70;99.90;;;;;;4965599;28;20306;-75
2022/10/27 01:12:31;;;;;;;21.52;11.77;;;9.70;99.90;;;;;;4971077;28;20050;-75
2022/10/27 01:14:58;;;;;;;26.63;12.80;;;9.60;99.90;;;;;;4963496;28;20049;-75
2022/10/27 01:17:50;;;;;;;16.23;12.10;;;9.50;99.90;;;;;;4980764;28;20031;-75
2022/10/27 01:20:27;;;;;;;17.02;11.93;;;9.40;99.90;;;;;;4987080;28;20053;-76
2022/10/27 01:23:18;;;;;;;19.67;13.52;;;9.30;99.90;;;;;;4970268;28;20453;-75
2022/10/27 01:25:58;;;;;;;19.05;11.93;;;9.20;99.90;;;;;;4969975;28;20057;-75
2022/10/27 01:28:40;;;;;;;19.77;13.07;;;9.10;99.90;;;;;;4956934;28;20049;-75
2022/10/27 01:31:10;;;;;;;13.68;11.98;;;9.00;99.90;;;;;;4982441;28;20535;-76
2022/10/27 01:33:41;;;;;;;25.55;13.32;;;9.10;99.90;;;;;;4994747;28;20398;-75
2022/10/27 01:36:18;;;;;;;20.38;12.50;;;9.00;99.90;;;;;;4991061;28;20644;-74
2022/10/27 01:39:27;;;;;;;19.25;13.45;;;8.90;99.90;;;;;;4989056;28;20054;-74
2022/10/27 01:42:00;;;;;;;22.20;13.00;;;8.90;99.90;;;;;;4938244;28;20533;-76
2022/10/27 01:44:37;;;;;;;17.17;12.95;;;8.80;99.90;;;;;;4965982;28;20530;-75
2022/10/27 01:47:06;;;;;;;19.75;13.73;;;9.00;99.90;;;;;;4991123;28;20703;-75
2022/10/27 01:49:35;;;;;;;21.20;14.40;;;9.10;99.90;;;;;;4988925;28;20062;-75
2022/10/27 01:52:35;;;;;;;17.25;13.23;;;9.10;99.90;;;;;;4974528;28;20046;-75
2022/10/27 01:55:03;;;;;;;17.73;14.32;;;9.00;99.90;;;;;;4989895;28;20058;-75
2022/10/27 01:57:59;;;;;;;18.85;12.77;;;8.90;99.90;;;;;;4991027;28;20046;-75
2022/10/27 02:00:26;;;;;;;27.58;13.63;;;8.90;99.90;;;;;;4976652;28;20054;-76
2022/10/27 02:03:02;;;;;;;20.05;13.85;;;8.90;99.90;;;;;;4964017;28;20504;-76
2022/10/27 02:05:35;;;;;;;19.00;13.98;;;8.90;99.90;;;;;;4988754;28;20043;-74
2022/10/27 02:08:19;;;;;;;17.98;14.32;;;8.80;99.90;;;;;;4975335;28;20049;-75
2022/10/27 02:11:02;;;;;;;19.52;13.40;;;8.80;99.90;;;;;;4974657;28;20046;-75
2022/10/27 02:13:36;;;;;;;23.50;13.93;;;8.80;99.90;;;;;;4989242;28;20283;-76
2022/10/27 02:16:07;;;;;;;23.23;13.32;;;8.80;99.90;;;;;;4990523;28;20053;-76
2022/10/27 02:18:37;;;;;;;24.38;13.80;;;8.70;99.90;;;;;;4994047;28;20045;-76
2022/10/27 02:21:10;;;;;;;17.10;13.73;;;8.70;99.90;;;;;;4982402;28;20065;-76
2022/10/27 02:23:37;;;;;;;17.38;12.25;;;8.70;99.90;;;;;;4994634;28;20045;-76
2022/10/27 02:26:17;;;;;;;19.08;14.70;;;8.70;99.90;;;;;;4989424;28;20047;-76
2022/10/27 02:28:51;;;;;;;21.88;14.25;;;8.80;99.90;;;;;;4978779;28;20046;-75
2022/10/27 02:31:21;;;;;;;19.90;14.18;;;8.80;99.90;;;;;;4984834;28;20559;-76
2022/10/27 02:33:48;;;;;;;19.55;13.68;;;8.70;99.90;;;;;;4983210;28;20042;-75
2022/10/27 02:36:15;;;;;;;17.13;14.05;;;8.60;99.90;;;;;;4970333;28;20049;-75
2022/10/27 02:38:41;;;;;;;18.15;14.63;;;8.70;99.90;;;;;;4993195;28;20049;-76
2022/10/27 02:41:08;;;;;;;18.20;14.38;;;8.80;99.90;;;;;;5024082;23;20399;-75
2022/10/27 02:43:35;;;;;;;26.45;14.35;;;8.90;99.90;;;;;;5016766;28;20531;-75
2022/10/27 02:46:01;;;;;;;26.50;15.38;;;9.00;99.90;;;;;;5015997;28;20038;-75
2022/10/27 02:48:28;;;;;;;19.35;14.10;;;9.20;99.90;;;;;;5024678;28;20052;-75
2022/10/27 02:50:55;;;;;;;20.25;13.25;;;9.10;99.90;;;;;;5021478;28;20068;-75
2022/10/27 02:53:21;;;;;;;16.25;12.20;;;9.00;99.90;;;;;;5042005;28;20040;-74
2022/10/27 02:55:51;;;;;;;18.98;13.20;;;8.80;99.90;;;;;;5024684;28;20143;-74
2022/10/27 02:58:18;;;;;;;17.70;13.45;;;8.70;99.90;;;;;;5027491;28;20037;-75
2022/10/27 03:00:45;;;;;;;19.65;12.85;;;8.70;99.90;;;;;;5023435;28;20034;-75
2022/10/27 03:03:12;;;;;;;22.73;13.00;;;8.80;99.90;;;;;;5023097;28;20083;-75
2022/10/27 03:05:39;;;;;;;20.27;14.05;;;8.90;99.90;;;;;;5023836;28;20065;-75
2022/10/27 03:08:08;;;;;;;21.40;14.77;;;8.80;99.90;;;;;;5018615;28;20545;-74
2022/10/27 03:10:34;;;;;;;20.20;15.23;;;8.80;99.90;;;;;;5024008;28;20092;-74
2022/10/27 03:13:01;;;;;;;26.77;14.60;;;8.90;99.90;;;;;;5016579;28;20042;-74
2022/10/27 03:15:28;;;;;;;29.23;13.40;;;9.00;99.90;;;;;;5023908;28;20812;-74
2022/10/27 03:17:54;;;;;;;58.15;16.38;;;9.10;99.90;;;;;;5019360;28;20043;-74
2022/10/27 03:20:21;;;;;;;39.08;15.02;;;9.00;99.90;;;;;;5040631;28;20042;-74
2022/10/27 03:22:48;;;;;;;19.55;13.20;;;9.20;99.90;;;;;;5029589;28;20548;-74
2022/10/27 03:25:15;;;;;;;23.23;12.35;;;9.00;99.90;;;;;;5025655;28;20045;-74
2022/10/27 03:27:43;;;;;;;11.43;10.13;;;8.90;99.90;;;;;;5026481;28;20068;-74
2022/10/27 03:30:13;;;;;;;17.17;11.40;;;8.80;99.90;;;;;;5020133;28;20116;-74
2022/10/27 03:32:45;;;;;;;14.35;11.35;;;8.60;99.90;;;;;;5040428;28;20050;-74
2022/10/27 03:35:12;;;;;;;19.65;13.50;;;8.50;99.90;;;;;;5021252;28;20049;-74
2022/10/27 03:37:39;;;;;;;26.23;13.13;;;8.30;99.90;;;;;;5017344;28;20410;-74
2022/10/27 03:40:06;;;;;;;25.45;13.13;;;8.30;99.90;;;;;;5015530;28;20071;-74
2022/10/27 03:42:33;;;;;;;14.48;12.02;;;8.30;99.90;;;;;;5024001;28;20036;-75
2022/10/27 03:45:00;;;;;;;13.35;11.70;;;8.20;99.90;;;;;;5025474;28;20059;-74
2022/10/27 03:47:26;;;;;;;18.55;13.45;;;8.20;99.90;;;;;;5019668;28;20069;-74
2022/10/27 03:49:53;;;;;;;22.35;14.00;;;8.30;99.90;;;;;;5037465;28;20505;-74
2022/10/27 03:52:21;;;;;;;21.30;14.63;;;8.50;99.90;;;;;;5016514;28;20033;-74
2022/10/27 03:54:49;;;;;;;17.75;14.80;;;8.50;99.90;;;;;;5039964;28;20038;-74
2022/10/27 03:57:15;;;;;;;23.77;16.30;;;8.40;99.90;;;;;;5009093;28;20034;-74
2022/10/27 03:59:42;;;;;;;22.30;16.83;;;8.50;99.90;;;;;;5020209;28;20132;-74
2022/10/27 04:02:09;;;;;;;33.20;23.02;;;8.60;99.90;;;;;;5023289;28;20128;-74
2022/10/27 04:04:35;;;;;;;27.95;20.05;;;8.60;99.90;;;;;;5023978;28;20041;-74
2022/10/27 04:07:02;;;;;;;22.13;17.77;;;8.40;99.90;;;;;;5024123;28;20686;-74
2022/10/27 04:09:29;;;;;;;27.00;19.08;;;8.30;99.90;;;;;;5024795;28;20047;-74
2022/10/27 04:11:56;;;;;;;20.60;17.35;;;8.30;99.90;;;;;;5019341;28;20041;-74
2022/10/27 04:14:22;;;;;;;28.38;15.95;;;8.30;99.90;;;;;;5022604;28;20445;-74
2022/10/27 04:16:50;;;;;;;24.67;15.68;;;8.20;99.90;;;;;;5023923;28;20037;-74
2022/10/27 04:19:20;;;;;;;27.67;16.02;;;8.40;99.90;;;;;;5038812;28;20053;-74
2022/10/27 04:21:47;;;;;;;15.02;13.40;;;8.60;99.90;;;;;;5009834;28;20044;-74
2022/10/27 04:24:13;;;;;;;19.95;14.65;;;8.60;99.90;;;;;;5022931;28;20711;-74
2022/10/27 04:26:40;;;;;;;23.15;16.08;;;8.50;99.90;;;;;;5015676;28;20508;-74
2022/10/27 04:29:07;;;;;;;35.10;19.98;;;8.60;99.90;;;;;;5016522;28;20041;-75
2022/10/27 04:31:33;;;;;;;32.08;19.60;;;8.50;99.90;;;;;;5023359;28;20445;-74
2022/10/27 04:34:00;;;;;;;22.70;16.63;;;8.40;99.90;;;;;;5030586;28;20041;-75
2022/10/27 04:36:28;;;;;;;22.55;15.95;;;8.40;99.90;;;;;;5023794;28;20038;-74
2022/10/27 04:38:55;;;;;;;26.15;15.85;;;8.30;99.90;;;;;;5020031;28;20125;-75
2022/10/27 04:41:21;;;;;;;20.60;15.27;;;8.30;99.90;;;;;;5013986;28;20030;-75
2022/10/27 04:43:49;;;;;;;24.52;15.57;;;8.10;99.90;;;;;;5020566;28;20608;-74
2022/10/27 04:46:17;;;;;;;24.20;15.60;;;8.10;99.90;;;;;;5015865;28;20069;-75
2022/10/27 04:48:44;;;;;;;23.20;15.43;;;8.10;99.90;;;;;;5016435;28;20041;-75
2022/10/27 04:51:13;;;;;;;17.27;14.95;;;8.00;99.90;;;;;;5020957;28;20514;-75
2022/10/27 04:53:43;;;;;;;26.60;16.77;;;7.90;99.90;;;;;;5024478;28;20052;-75
2022/10/27 04:56:10;;;;;;;26.00;16.67;;;7.90;99.90;;;;;;5021522;28;20045;-75
2022/10/27 04:58:37;;;;;;;27.27;17.10;;;8.10;99.90;;;;;;5021133;28;20034;-74
2022/10/27 05:01:07;;;;;;;29.02;16.85;;;8.40;99.90;;;;;;5014712;28;20048;-74
2022/10/27 05:03:34;;;;;;;25.60;17.13;;;8.20;99.90;;;;;;5038940;28;20045;-74
2022/10/27 05:06:01;;;;;;;29.10;17.85;;;8.30;99.90;;;;;;5024859;28;20052;-74
2022/10/27 05:08:28;;;;;;;25.80;16.60;;;8.40;99.90;;;;;;5021477;28;20132;-74
2022/10/27 05:10:55;;;;;;;28.48;17.17;;;8.30;99.90;;;;;;5026522;28;20128;-74
2022/10/27 05:13:22;;;;;;;38.05;19.50;;;8.40;99.90;;;;;;5027501;28;20160;-74
2022/10/27 05:15:49;;;;;;;34.60;17.70;;;8.30;99.90;;;;;;5023230;28;20037;-74
2022/10/27 05:18:17;;;;;;;30.65;17.50;;;8.50;99.90;;;;;;5020778;28;20123;-74
2022/10/27 05:20:44;;;;;;;28.10;17.20;;;8.60;99.90;;;;;;5025216;28;20097;-74
2022/10/27 05:23:10;;;;;;;34.03;18.27;;;8.80;99.90;;;;;;5026893;28;20045;-74
2022/10/27 05:25:37;;;;;;;24.15;15.30;;;8.80;99.90;;;;;;5025888;28;20140;-74
2022/10/27 05:28:05;;;;;;;31.45;17.30;;;8.70;99.90;;;;;;5026977;28;20411;-74
2022/10/27 05:30:33;;;;;;;24.08;16.27;;;8.60;99.90;;;;;;5026917;28;20045;-74
2022/10/27 05:33:03;;;;;;;23.00;15.13;;;8.60;99.90;;;;;;5027331;28;20045;-75
2022/10/27 05:35:30;;;;;;;23.33;15.60;;;8.50;99.90;;;;;;5017888;28;20232;-74
2022/10/27 05:37:57;;;;;;;29.05;16.33;;;8.70;99.90;;;;;;5025580;28;20167;-75
2022/10/27 05:40:24;;;;;;;20.63;14.82;;;8.70;99.90;;;;;;5024819;28;20037;-75
2022/10/27 05:42:54;;;;;;;27.10;15.55;;;8.70;99.90;;;;;;5027500;28;20049;-74
2022/10/27 05:45:23;;;;;;;25.40;16.38;;;8.70;99.90;;;;;;5043374;28;20534;-74
2022/10/27 05:48:01;;;;;;;25.83;17.13;;;8.60;99.90;;;;;;5020168;28;20530;-75
2022/10/27 05:50:29;;;;;;;35.13;17.75;;;8.80;99.90;;;;;;5022747;28;20048;-74
2022/10/27 05:52:56;;;;;;;39.45;18.05;;;8.80;99.90;;;;;;5031227;28;20037;-75
2022/10/27 05:55:23;;;;;;;43.63;19.65;;;8.80;99.90;;;;;;5015957;28;20050;-75
2022/10/27 05:58:09;;;;;;;27.90;16.58;;;8.70;99.90;;;;;;5030317;28;20668;-75
2022/10/27 06:00:37;;;;;;;30.90;17.75;;;8.90;99.90;;;;;;5017466;28;20045;-75
2022/10/27 06:03:18;;;;;;;48.45;23.70;;;9.00;99.90;;;;;;5025856;28;20053;-74
2022/10/27 06:05:45;;;;;;;44.08;23.05;;;9.00;99.90;;;;;;5018839;28;20045;-74
2022/10/27 06:08:15;;;;;;;47.58;24.20;;;9.20;99.90;;;;;;5011992;28;20045;-74
2022/10/27 06:10:42;;;;;;;45.33;22.90;;;9.30;99.90;;;;;;5025268;28;20038;-75
2022/10/27 06:13:13;;;;;;;36.85;20.23;;;9.30;99.90;;;;;;5016365;28;20065;-75
2022/10/27 06:15:40;;;;;;;48.38;22.95;;;9.30;99.90;;;;;;5041465;23;20045;-73
2022/10/27 06:18:07;;;;;;;47.75;24.00;;;9.40;99.90;;;;;;5035505;28;20045;-74
2022/10/27 06:20:34;;;;;;;48.03;24.25;;;9.30;99.90;;;;;;5037984;28;20052;-73
2022/10/27 06:23:01;;;;;;;47.35;23.75;;;9.30;99.90;;;;;;5035321;28;20103;-73
2022/10/27 06:25:28;;;;;;;57.92;26.60;;;9.30;99.90;;;;;;5033495;28;20526;-73
2022/10/27 06:27:55;;;;;;;52.95;25.63;;;9.30;99.90;;;;;;5026190;28;20044;-74
2022/10/27 06:30:22;;;;;;;69.78;29.70;;;9.20;99.90;;;;;;5037184;28;20507;-73
2022/10/27 06:32:48;;;;;;;71.18;32.47;;;9.30;99.90;;;;;;5037165;28;20033;-74
2022/10/27 06:35:15;;;;;;;63.00;31.02;;;9.30;99.90;;;;;;5035821;28;20041;-72
2022/10/27 06:37:43;;;;;;;75.10;34.10;;;9.30;99.90;;;;;;5035213;28;20041;-72
2022/10/27 06:40:12;;;;;;;82.43;35.72;;;9.40;99.90;;;;;;5033080;28;20045;-72
2022/10/27 06:42:39;;;;;;;93.60;38.55;;;9.50;99.90;;;;;;5036501;28;20045;-72
2022/10/27 06:45:21;;;;;;;86.25;36.33;;;9.60;99.90;;;;;;5030389;28;20063;-73
2022/10/27 06:48:00;;;;;;;76.10;35.42;;;9.70;99.90;;;;;;5052093;28;20060;-72
2022/10/27 06:50:27;;;;;;;94.65;39.42;;;9.70;99.90;;;;;;5032335;28;20055;-73
2022/10/27 06:52:54;;;;;;;91.20;40.63;;;9.80;99.90;;;;;;5027064;28;20063;-72
2022/10/27 06:55:21;;;;;;;98.78;40.63;;;10.00;99.90;;;;;;5037727;28;20076;-72
2022/10/27 06:57:48;;;;;;;81.57;36.20;;;10.30;99.90;;;;;;5036812;28;20067;-73
2022/10/27 07:00:16;;;;;;;82.18;36.28;;;10.50;99.90;;;;;;5030949;28;20041;-73
2022/10/27 07:02:42;;;;;;;99.93;40.42;;;10.60;99.90;;;;;;5032948;28;20094;-73
2022/10/27 07:05:09;;;;;;;96.55;38.42;;;10.60;99.90;;;;;;5032682;28;20037;-72
2022/10/27 07:07:36;;;;;;;93.10;39.53;;;10.60;99.90;;;;;;5036605;28;20527;-72
2022/10/27 07:10:05;;;;;;;71.28;31.92;;;10.50;99.90;;;;;;5028163;28;20068;-72
2022/10/27 07:12:33;;;;;;;61.20;29.17;;;10.60;99.90;;;;;;5038390;28;20426;-73
2022/10/27 07:15:00;;;;;;;60.00;27.80;;;10.50;99.90;;;;;;5032322;28;20041;-72
2022/10/27 07:17:26;;;;;;;61.72;29.83;;;10.50;99.90;;;;;;5036849;28;20039;-72
2022/10/27 07:19:53;;;;;;;67.47;32.53;;;10.60;99.90;;;;;;5033461;28;20065;-73
2022/10/27 07:22:20;;;;;;;64.55;33.17;;;10.60;99.90;;;;;;5034303;28;20060;-72
2022/10/27 07:24:46;;;;;;;65.82;32.78;;;10.70;99.90;;;;;;5033843;28;20080;-72
2022/10/27 07:27:13;;;;;;;71.40;35.17;;;10.80;99.90;;;;;;5033900;28;20153;-72
2022/10/27 07:29:40;;;;;;;78.95;33.20;;;10.80;99.90;;;;;;5034580;28;20052;-72
2022/10/27 07:32:06;;;;;;;66.43;32.60;;;10.80;99.90;;;;;;5033251;28;20041;-72
2022/10/27 07:34:33;;;;;;;62.88;32.92;;;10.90;99.90;;;;;;5032987;28;20042;-72
2022/10/27 07:37:00;;;;;;;67.53;33.08;;;11.00;99.90;;;;;;5025702;28;20038;-72
2022/10/27 07:39:27;;;;;;;72.72;33.60;;;11.10;99.90;;;;;;5035974;28;20045;-72
2022/10/27 07:41:54;;;;;;;55.13;29.73;;;11.20;99.90;;;;;;5033632;28;20041;-73
2022/10/27 07:44:20;;;;;;;91.38;40.25;;;11.30;99.90;;;;;;5030653;28;20098;-72
2022/10/27 07:46:47;;;;;;;33.72;17.83;;;11.50;99.90;;;;;;5036572;28;20037;-72
2022/10/27 07:49:14;;;;;;;31.80;19.00;;;11.80;99.90;;;;;;5033805;28;20207;-72
2022/10/27 07:51:40;;;;;;;39.05;18.38;;;12.00;99.90;;;;;;5035377;28;20068;-73
2022/10/27 07:54:07;;;;;;;30.30;17.75;;;12.20;99.90;;;;;;5032785;28;21032;-73
2022/10/27 07:56:36;;;;;;;32.53;17.60;;;12.30;99.90;;;;;;5049629;28;20286;-72
2022/10/27 07:59:03;;;;;;;37.08;19.23;;;12.40;99.90;;;;;;5036292;28;20048;-72
2022/10/27 08:01:30;;;;;;;40.25;19.20;;;12.50;99.90;;;;;;5034753;28;20041;-72
2022/10/27 08:03:56;;;;;;;29.85;17.92;;;12.70;99.90;;;;;;5034873;28;20299;-72
2022/10/27 08:06:23;;;;;;;34.90;18.30;;;12.70;99.90;;;;;;5033988;28;20045;-72
2022/10/27 08:08:50;;;;;;;28.20;18.05;;;12.90;99.90;;;;;;5031793;28;20527;-73
2022/10/27 08:11:17;;;;;;;29.58;17.33;;;12.90;99.90;;;;;;5031421;28;20166;-72
2022/10/27 08:13:43;;;;;;;29.48;18.10;;;13.00;99.90;;;;;;5036340;28;20263;-72
2022/10/27 08:16:10;;;;;;;28.38;16.75;;;13.10;99.90;;;;;;5031988;28;20051;-72
2022/10/27 08:18:36;;;;;;;27.55;16.33;;;13.10;99.90;;;;;;5026219;28;20383;-73
2022/10/27 08:21:04;;;;;;;23.85;15.00;;;13.10;99.90;;;;;;5033303;28;20041;-73
2022/10/27 08:23:31;;;;;;;35.53;15.05;;;13.10;99.90;;;;;;5025712;28;20128;-73
2022/10/27 08:25:58;;;;;;;25.00;13.23;;;13.30;99.90;;;;;;5031386;28;20033;-73
2022/10/27 08:28:25;;;;;;;21.10;13.82;;;13.30;99.90;;;;;;5031678;28;20049;-73
2022/10/27 08:30:52;;;;;;;19.85;13.30;;;13.40;99.90;;;;;;5025684;28;20053;-73
2022/10/27 08:33:22;;;;;;;20.60;11.63;;;13.50;99.90;;;;;;5034345;28;20041;-72
2022/10/27 08:35:50;;;;;;;13.23;11.13;;;13.60;99.90;;;;;;5035023;28;20037;-73
2022/10/27 08:38:18;;;;;;;19.15;12.13;;;13.80;99.90;;;;;;5034455;28;20514;-72
2022/10/27 08:40:56;;;;;;;13.90;12.50;;;13.90;99.90;;;;;;5058753;22;20060;-76
2022/10/27 08:43:46;;;;;;;15.65;12.80;;;14.00;99.90;;;;;;5035329;28;20155;-73
2022/10/27 08:46:28;;;;;;;16.30;14.02;;;14.10;99.90;;;;;;5038265;28;20123;-74
2022/10/27 08:49:01;;;;;;;14.25;12.85;;;14.30;99.90;;;;;;5042474;28;20126;-73
2022/10/27 08:51:30;;;;;;;15.07;13.52;;;14.40;99.90;;;;;;5052832;28;20196;-74
2022/10/27 08:53:58;;;;;;;16.02;14.73;;;14.60;99.90;;;;;;5034033;28;20037;-73
2022/10/27 08:56:31;;;;;;;16.42;14.60;;;14.70;99.90;;;;;;5051995;28;20040;-74
2022/10/27 08:58:57;;;;;;;14.63;13.55;;;14.90;99.90;;;;;;5053143;28;20463;-74
2022/10/27 09:01:29;;;;;;;16.27;14.95;;;14.90;99.90;;;;;;5044998;28;20047;-74
2022/10/27 09:04:15;;;;;;;16.85;15.40;;;15.10;99.90;;;;;;5037978;28;20044;-75
2022/10/27 09:06:51;;;;;;;17.35;15.40;;;15.20;99.90;;;;;;5057381;28;20048;-75
2022/10/27 09:09:43;;;;;;;18.95;17.30;;;15.40;99.90;;;;;;5038484;28;20040;-75
2022/10/27 09:12:28;;;;;;;20.10;18.35;;;15.60;99.90;;;;;;5041929;28;20044;-74
2022/10/27 09:15:28;;;;;;;19.23;17.88;;;15.70;99.90;;;;;;5016035;28;20534;-75
2022/10/27 09:18:27;;;;;;;20.70;19.20;;;15.60;99.90;;;;;;5057446;28;20049;-74
2022/10/27 09:20:56;;;;;;;20.73;18.92;;;15.70;99.90;;;;;;5035783;28;20048;-74
2022/10/27 09:23:32;;;;;;;19.50;18.30;;;15.60;99.90;;;;;;5053813;28;20041;-74
2022/10/27 09:25:58;;;;;;;20.00;18.45;;;15.70;99.90;;;;;;5044008;28;20683;-74
2022/10/27 09:28:50;;;;;;;20.60;19.00;;;15.90;99.90;;;;;;5039734;28;20049;-74
2022/10/27 09:31:34;;;;;;;21.73;20.10;;;16.00;99.90;;;;;;5038026;28;20306;-74
2022/10/27 09:34:25;;;;;;;21.45;19.77;;;16.10;99.90;;;;;;5041793;28;20078;-73
2022/10/27 09:36:52;;;;;;;26.83;20.40;;;16.30;99.90;;;;;;5055811;28;20039;-73
2022/10/27 09:39:22;;;;;;;20.52;19.02;;;16.20;99.90;;;;;;5042366;28;20449;-73
2022/10/27 09:41:49;;;;;;;22.13;19.75;;;16.20;99.90;;;;;;5054414;28;20032;-73
2022/10/27 09:44:20;;;;;;;23.13;21.55;;;16.40;99.90;;;;;;5063851;28;20782;-74
2022/10/27 09:46:53;;;;;;;22.65;21.15;;;16.70;99.90;;;;;;5061355;28;20062;-75
2022/10/27 09:49:26;;;;;;;22.42;20.60;;;17.00;99.90;;;;;;5057231;28;20048;-75
2022/10/27 09:52:13;;;;;;;26.20;23.80;;;17.10;99.90;;;;;;5054314;28;20131;-75
2022/10/27 09:54:50;;;;;;;24.80;22.98;;;17.20;99.90;;;;;;5064959;28;20083;-75
2022/10/27 09:57:26;;;;;;;24.52;22.92;;;17.30;99.90;;;;;;5058925;28;20036;-75
2022/10/27 10:00:02;;;;;;;26.63;24.70;;;17.50;99.90;;;;;;5040412;28;20048;-74
2022/10/27 10:02:53;;;;;;;24.73;23.13;;;17.50;99.90;;;;;;5063401;28;20055;-75
2022/10/27 10:05:25;;;;;;;24.73;22.92;;;17.50;99.90;;;;;;5058732;28;20048;-75
2022/10/27 10:08:09;;;;;;;25.92;23.85;;;17.40;99.90;;;;;;5057463;28;20131;-75
2022/10/27 10:10:36;;;;;;;24.02;22.42;;;17.30;99.90;;;;;;5059161;28;20041;-75
2022/10/27 10:13:05;;;;;;;24.60;22.80;;;17.20;99.90;;;;;;5037869;28;20076;-75
2022/10/27 10:15:37;;;;;;;23.05;21.65;;;17.20;99.90;;;;;;5058693;28;20152;-75
2022/10/27 10:18:21;;;;;;;24.13;22.65;;;17.40;99.90;;;;;;5037488;28;20045;-74
2022/10/27 10:21:02;;;;;;;23.38;21.95;;;17.60;99.90;;;;;;5070014;28;20110;-73
2022/10/27 10:23:35;;;;;;;24.77;23.17;;;17.70;99.90;;;;;;5044131;28;20059;-73
2022/10/27 10:26:13;;;;;;;23.83;22.00;;;18.00;99.90;;;;;;5054403;28;20052;-74
2022/10/27 10:28:45;;;;;;;24.92;22.95;;;18.20;99.90;;;;;;5060680;28;20553;-74
2022/10/27 10:31:19;;;;;;;25.23;23.27;;;18.10;99.90;;;;;;5062128;28;20057;-74
2022/10/27 10:33:47;;;;;;;23.85;22.30;;;18.00;99.90;;;;;;5033693;28;20041;-74
2022/10/27 10:36:25;;;;;;;24.42;23.00;;;18.10;99.90;;;;;;5049737;28;20479;-74
2022/10/27 10:38:57;;;;;;;24.60;22.77;;;18.10;99.90;;;;;;5055182;28;20040;-73
2022/10/27 10:41:26;;;;;;;24.80;23.35;;;18.20;99.90;;;;;;5054139;28;20731;-73
2022/10/27 10:44:06;;;;;;;23.92;22.20;;;18.20;99.90;;;;;;5052948;28;20075;-74
2022/10/27 10:46:37;;;;;;;24.00;22.50;;;18.00;99.90;;;;;;5051165;28;20059;-74
2022/10/27 10:49:17;;;;;;;24.95;23.42;;;18.00;99.90;;;;;;5050131;28;20062;-74
2022/10/27 10:51:50;;;;;;;24.48;22.70;;;18.00;99.90;;;;;;5077835;28;20788;-74
2022/10/27 10:54:33;;;;;;;24.17;22.30;;;17.90;99.90;;;;;;5035329;28;20052;-74
2022/10/27 10:57:01;;;;;;;24.27;22.98;;;17.90;99.90;;;;;;5037884;28;20079;-74
2022/10/27 10:59:30;;;;;;;24.92;23.08;;;18.20;99.90;;;;;;5048994;28;20739;-74
2022/10/27 11:02:18;;;;;;;24.38;22.77;;;18.30;99.90;;;;;;5035272;28;20044;-74
2022/10/27 11:04:46;;;;;;;24.25;22.70;;;18.50;99.90;;;;;;5051099;28;20048;-74
2022/10/27 11:07:27;;;;;;;24.02;22.65;;;18.60;99.90;;;;;;5053587;28;20059;-75
2022/10/27 11:10:13;;;;;;;24.30;22.35;;;18.70;99.90;;;;;;5041195;28;20105;-74
2022/10/27 11:12:48;;;;;;;;;;;18.70;99.90;;;;;;5072362;28;20037;-74
2022/10/27 11:15:34;;;;;;;23.83;22.58;;;18.50;99.90;;;;;;5033303;28;20003;-74
2022/10/27 11:18:17;;;;;;;23.42;22.23;;;18.50;99.90;;;;;;5047630;28;20048;-74
2022/10/27 11:20:47;;;;;;;24.20;22.70;;;18.40;99.90;;;;;;5035873;28;20342;-73
2022/10/27 11:23:27;;;;;;;24.65;23.17;;;18.40;99.90;;;;;;5031464;28;20080;-74
2022/10/27 11:25:56;;;;;;;23.98;22.23;;;18.40;99.90;;;;;;5051247;28;20132;-74
2022/10/27 11:28:28;;;;;;;23.38;21.98;;;18.70;99.90;;;;;;5052037;28;20056;-74
2022/10/27 11:31:18;;;;;;;23.52;21.83;;;18.50;99.90;;;;;;5036497;28;20040;-74
2022/10/27 11:34:11;;;;;;;21.77;19.88;;;18.40;99.90;;;;;;5046924;28;20135;-73
2022/10/27 11:36:48;;;;;;;22.25;20.75;;;18.60;99.90;;;;;;5039181;28;20033;-73
2022/10/27 11:39:41;;;;;;;24.58;22.77;;;18.80;99.90;;;;;;5047102;28;20037;-73
2022/10/27 11:42:23;;;;;;;23.55;21.88;;;18.80;99.90;;;;;;5052104;28;20136;-73
2022/10/27 11:45:43;;;;;;;23.45;21.92;;;18.70;99.90;;;;;;5058017;28;20051;-72
2022/10/27 11:48:16;;;;;;;24.67;23.13;;;18.60;99.90;;;;;;4986643;28;20547;-72
2022/10/27 11:51:07;;;;;;;23.65;22.13;;;18.60;99.90;;;;;;5035430;28;20715;-75
2022/10/27 11:53:34;;;;;;;24.00;22.55;;;18.80;99.90;;;;;;5052739;28;20079;-74
2022/10/27 11:56:29;;;;;;;24.42;22.83;;;18.90;99.90;;;;;;5035098;28;20603;-76
2022/10/27 11:59:17;;;;;;;24.40;22.65;;;18.80;99.90;;;;;;5049798;28;20571;-74
2022/10/27 12:02:29;;;;;;;24.83;23.02;;;18.90;99.90;;;;;;5044732;28;20044;-75
2022/10/27 12:05:09;;;;;;;25.08;23.40;;;18.70;99.90;;;;;;5011830;28;20154;-74
2022/10/27 12:07:49;;;;;;;24.85;23.23;;;18.80;99.90;;;;;;5053114;28;20040;-75
2022/10/27 12:10:49;;;;;;;25.35;23.15;;;19.00;99.90;;;;;;5037850;28;20259;-75
2022/10/27 12:13:26;;;;;;;24.85;23.05;;;19.30;99.90;;;;;;5050642;28;20398;-74
2022/10/27 12:16:19;;;;;;;25.10;23.08;;;19.40;99.90;;;;;;5055560;28;20040;-74
2022/10/27 12:19:05;;;;;;;24.55;22.48;;;19.50;99.90;;;;;;5039529;28;20043;-74
2022/10/27 12:21:46;;;;;;;24.95;23.02;;;19.40;99.90;;;;;;5039860;28;20040;-74
2022/10/27 12:24:43;;;;;;;25.00;22.75;;;19.50;99.90;;;;;;5049641;28;20061;-73
2022/10/27 12:27:16;;;;;;;23.77;21.80;;;19.70;99.90;;;;;;5001700;28;20041;-75
2022/10/27 12:29:49;;;;;;;23.55;21.83;;;19.60;99.90;;;;;;5049916;28;20139;-75
2022/10/27 12:32:33;;;;;;;24.50;22.42;;;19.70;99.90;;;;;;5037913;28;20068;-75
2022/10/27 12:35:27;;;;;;;23.70;21.95;;;19.50;99.90;;;;;;5039533;28;20453;-74
2022/10/27 12:38:16;;;;;;;24.75;23.08;;;19.40;99.90;;;;;;5009938;28;20129;-74
2022/10/27 12:41:05;;;;;;;24.23;22.73;;;19.40;99.90;;;;;;5038412;28;20044;-74
2022/10/27 12:43:40;;;;;;;24.70;23.00;;;19.40;99.90;;;;;;5033432;28;20041;-73
2022/10/27 12:46:25;;;;;;;23.40;21.90;;;19.50;99.90;;;;;;5052401;28;20045;-75
2022/10/27 12:49:34;;;;;;;23.55;21.67;;;19.40;99.90;;;;;;5050056;28;20135;-73
2022/10/27 12:52:20;;;;;;;23.40;21.95;;;19.30;99.90;;;;;;5033669;28;20098;-74
2022/10/27 12:55:23;;;;;;;24.63;23.23;;;19.30;99.90;;;;;;5038413;28;20182;-73
2022/10/27 12:58:11;;;;;;;23.48;21.83;;;19.30;99.90;;;;;;5046913;28;20151;-75
2022/10/27 13:00:48;;;;;;;23.52;21.90;;;19.30;99.90;;;;;;5039306;28;20044;-75